sensor_id;sensor_type;location;lat;lon;timestamp;pressure;altitude;pressure_sealevel;temperature;humidity
10464;BME280;5279;42.048;24.638;2023-03-01T00:01:12;98157.22;;;7.68;100.00
10464;BME280;5279;42.048;24.638;2023-03-01T00:03:39;98163.16;;;7.59;100.00
10464;BME280;5279;42.048;24.638;2023-03-01T00:06:06;98165.28;;;7.54;100.00
10464;BME280;5279;42.048;24.638;2023-03-01T00:08:34;98158.88;;;7.46;100.00
10464;BME280;5279;42.048;24.638;2023-03-01T00:11:03;98154.97;;;7.51;100.00
10464;BME280;5279;42.048;24.638;2023-03-01T00:13:30;98155.94;;;7.50;100.00
10464;BME280;5279;42.048;24.638;2023-03-01T00:15:57;98161.75;;;7.43;100.00
10464;BME280;5279;42.048;24.638;2023-03-01T00:18:26;98155.19;;;7.48;100.00
10464;BME280;5279;42.048;24.638;2023-03-01T00:20:54;98158.88;;;7.46;100.00
10464;BME280;5279;42.048;24.638;2023-03-01T00:23:22;98158.34;;;7.53;100.00
10464;BME280;5279;42.048;24.638;2023-03-01T00:25:50;98155.94;;;7.50;100.00
10464;BME280;5279;42.048;24.638;2023-03-01T00:28:17;98155.09;;;7.50;100.00
10464;BME280;5279;42.048;24.638;2023-03-01T00:30:44;98157.09;;;7.46;100.00
10464;BME280;5279;42.048;24.638;2023-03-01T00:33:11;98154.09;;;7.51;100.00
10464;BME280;5279;42.048;24.638;2023-03-01T00:35:39;98154.50;;;7.57;100.00
10464;BME280;5279;42.048;24.638;2023-03-01T00:38:06;98146.09;;;7.52;100.00
10464;BME280;5279;42.048;24.638;2023-03-01T00:40:38;98145.03;;;7.55;100.00
10464;BME280;5279;42.048;24.638;2023-03-01T00:43:05;98138.81;;;7.56;100.00
10464;BME280;5279;42.048;24.638;2023-03-01T00:45:33;98143.97;;;7.57;100.00
10464;BME280;5279;42.048;24.638;2023-03-01T00:48:00;98130.28;;;7.52;100.00
10464;BME280;5279;42.048;24.638;2023-03-01T00:50:28;98132.69;;;7.55;100.00
10464;BME280;5279;42.048;24.638;2023-03-01T00:52:56;98129.59;;;7.61;100.00
10464;BME280;5279;42.048;24.638;2023-03-01T00:55:23;98126.25;;;7.59;100.00
10464;BME280;5279;42.048;24.638;2023-03-01T00:57:50;98129.59;;;7.61;100.00
10464;BME280;5279;42.048;24.638;2023-03-01T01:00:18;98120.97;;;7.59;100.00
10464;BME280;5279;42.048;24.638;2023-03-01T01:02:45;98125.28;;;7.60;100.00
10464;BME280;5279;42.048;24.638;2023-03-01T01:05:12;98123.38;;;7.62;100.00
10464;BME280;5279;42.048;24.638;2023-03-01T01:07:39;98107.88;;;7.58;100.00
10464;BME280;5279;42.048;24.638;2023-03-01T01:10:10;98123.94;;;7.55;100.00
10464;BME280;5279;42.048;24.638;2023-03-01T01:12:43;98125.63;;;7.56;100.00
10464;BME280;5279;42.048;24.638;2023-03-01T01:15:10;98114.47;;;7.52;100.00
10464;BME280;5279;42.048;24.638;2023-03-01T01:17:39;98113.50;;;7.53;100.00
10464;BME280;5279;42.048;24.638;2023-03-01T01:20:07;98120.44;;;7.54;100.00
10464;BME280;5279;42.048;24.638;2023-03-01T01:22:34;98121.78;;;7.60;100.00
10464;BME280;5279;42.048;24.638;2023-03-01T01:25:01;98113.84;;;7.49;100.00
10464;BME280;5279;42.048;24.638;2023-03-01T01:27:30;98103.66;;;7.44;100.00
10464;BME280;5279;42.048;24.638;2023-03-01T01:29:56;98104.38;;;7.46;100.00
10464;BME280;5279;42.048;24.638;2023-03-01T01:32:24;98105.66;;;7.41;100.00
10464;BME280;5279;42.048;24.638;2023-03-01T01:34:50;98104.13;;;7.49;100.00
10464;BME280;5279;42.048;24.638;2023-03-01T01:37:17;98101.00;;;7.44;100.00
10464;BME280;5279;42.048;24.638;2023-03-01T01:39:44;98110.34;;;7.48;100.00
10464;BME280;5279;42.048;24.638;2023-03-01T01:42:13;98110.59;;;7.45;100.00
10464;BME280;5279;42.048;24.638;2023-03-01T01:44:45;98119.72;;;7.52;100.00
10464;BME280;5279;42.048;24.638;2023-03-01T01:47:14;98104.53;;;7.56;100.00
10464;BME280;5279;42.048;24.638;2023-03-01T01:49:46;98104.13;;;7.49;100.00
10464;BME280;5279;42.048;24.638;2023-03-01T01:52:18;98098.88;;;7.49;100.00
10464;BME280;5279;42.048;24.638;2023-03-01T01:54:49;98102.28;;;7.39;100.00
10464;BME280;5279;42.048;24.638;2023-03-01T01:57:20;98098.31;;;7.33;100.00
10464;BME280;5279;42.048;24.638;2023-03-01T01:59:52;98101.47;;;7.38;100.00
10464;BME280;5279;42.048;24.638;2023-03-01T02:02:19;98087.97;;;7.30;100.00
10464;BME280;5279;42.048;24.638;2023-03-01T02:04:47;98100.47;;;7.39;100.00
10464;BME280;5279;42.048;24.638;2023-03-01T02:07:16;98102.06;;;7.42;100.00
10464;BME280;5279;42.048;24.638;2023-03-01T02:09:46;98094.03;;;7.43;100.00
10464;BME280;5279;42.048;24.638;2023-03-01T02:12:14;98090.47;;;7.44;100.00
10464;BME280;5279;42.048;24.638;2023-03-01T02:14:42;98095.75;;;7.44;100.00
10464;BME280;5279;42.048;24.638;2023-03-01T02:17:11;98095.75;;;7.44;100.00
10464;BME280;5279;42.048;24.638;2023-03-01T02:19:47;98093.09;;;7.44;100.00
10464;BME280;5279;42.048;24.638;2023-03-01T02:22:22;98094.28;;;7.40;100.00
10464;BME280;5279;42.048;24.638;2023-03-01T02:24:57;98096.19;;;7.38;100.00
10464;BME280;5279;42.048;24.638;2023-03-01T02:27:32;98097.97;;;7.38;100.00
10464;BME280;5279;42.048;24.638;2023-03-01T02:30:05;98096.41;;;7.35;100.00
10464;BME280;5279;42.048;24.638;2023-03-01T02:32:33;98093.88;;;7.34;100.00
10464;BME280;5279;42.048;24.638;2023-03-01T02:34:59;98090.91;;;7.38;100.00
10464;BME280;5279;42.048;24.638;2023-03-01T02:37:27;98090.47;;;7.44;100.00
10464;BME280;5279;42.048;24.638;2023-03-01T02:39:58;98089.00;;;7.40;100.00
10464;BME280;5279;42.048;24.638;2023-03-01T02:42:28;98091.28;;;7.45;100.00
10464;BME280;5279;42.048;24.638;2023-03-01T02:44:57;98080.63;;;7.46;100.00
10464;BME280;5279;42.048;24.638;2023-03-01T02:47:27;98090.25;;;7.47;100.00
10464;BME280;5279;42.048;24.638;2023-03-01T02:49:54;98084.00;;;7.48;100.00
10464;BME280;5279;42.048;24.638;2023-03-01T02:52:33;98086.00;;;7.45;100.00
10464;BME280;5279;42.048;24.638;2023-03-01T02:55:05;98086.84;;;7.45;100.00
10464;BME280;5279;42.048;24.638;2023-03-01T02:57:34;98071.72;;;7.36;100.00
10464;BME280;5279;42.048;24.638;2023-03-01T03:00:04;98086.47;;;7.39;100.00
10464;BME280;5279;42.048;24.638;2023-03-01T03:02:35;98090.13;;;7.25;100.00
10464;BME280;5279;42.048;24.638;2023-03-01T03:05:04;98079.13;;;7.31;100.00
10464;BME280;5279;42.048;24.638;2023-03-01T03:07:33;98086.69;;;7.36;100.00
10464;BME280;5279;42.048;24.638;2023-03-01T03:10:01;98086.69;;;7.36;100.00
10464;BME280;5279;42.048;24.638;2023-03-01T03:12:28;98079.84;;;7.33;100.00
10464;BME280;5279;42.048;24.638;2023-03-01T03:14:54;98074.75;;;7.19;100.00
10464;BME280;5279;42.048;24.638;2023-03-01T03:17:21;98078.25;;;7.20;100.00
10464;BME280;5279;42.048;24.638;2023-03-01T03:19:50;98076.44;;;7.20;100.00
10464;BME280;5279;42.048;24.638;2023-03-01T03:22:20;98080.25;;;7.16;100.00
10464;BME280;5279;42.048;24.638;2023-03-01T03:24:46;98079.53;;;7.14;100.00
10464;BME280;5279;42.048;24.638;2023-03-01T03:27:13;98087.22;;;7.17;100.00
10464;BME280;5279;42.048;24.638;2023-03-01T03:29:40;98083.38;;;7.21;100.00
10464;BME280;5279;42.048;24.638;2023-03-01T03:32:07;98083.38;;;7.21;100.00
10464;BME280;5279;42.048;24.638;2023-03-01T03:34:34;98086.78;;;7.23;100.00
10464;BME280;5279;42.048;24.638;2023-03-01T03:37:02;98079.34;;;7.28;100.00
10464;BME280;5279;42.048;24.638;2023-03-01T03:39:49;98077.03;;;7.24;100.00
10464;BME280;5279;42.048;24.638;2023-03-01T03:42:20;98069.03;;;7.25;100.00
10464;BME280;5279;42.048;24.638;2023-03-01T03:44:47;98071.22;;;7.31;100.00
10464;BME280;5279;42.048;24.638;2023-03-01T03:47:14;98075.41;;;7.34;100.00
10464;BME280;5279;42.048;24.638;2023-03-01T03:49:59;98080.81;;;7.32;100.00
10464;BME280;5279;42.048;24.638;2023-03-01T03:52:27;98071.44;;;7.28;100.00
10464;BME280;5279;42.048;24.638;2023-03-01T03:54:54;98070.28;;;7.32;100.00
10464;BME280;5279;42.048;24.638;2023-03-01T03:57:20;98071.94;;;7.33;100.00
10464;BME280;5279;42.048;24.638;2023-03-01T03:59:47;98071.84;;;7.35;100.00
10464;BME280;5279;42.048;24.638;2023-03-01T04:02:14;98063.31;;;7.31;100.00
10464;BME280;5279;42.048;24.638;2023-03-01T04:04:47;98064.78;;;7.35;100.00
10464;BME280;5279;42.048;24.638;2023-03-01T04:07:15;98078.56;;;7.39;100.00
10464;BME280;5279;42.048;24.638;2023-03-01T04:09:43;98073.41;;;7.37;100.00
10464;BME280;5279;42.048;24.638;2023-03-01T04:12:10;98067.88;;;7.29;100.00
10464;BME280;5279;42.048;24.638;2023-03-01T04:14:37;98082.47;;;7.33;100.00
10464;BME280;5279;42.048;24.638;2023-03-01T04:17:04;98078.69;;;7.37;100.00
10464;BME280;5279;42.048;24.638;2023-03-01T04:19:31;98066.91;;;7.30;100.00
10464;BME280;5279;42.048;24.638;2023-03-01T04:22:01;98071.94;;;7.33;100.00
10464;BME280;5279;42.048;24.638;2023-03-01T04:24:37;98079.53;;;7.38;100.00
10464;BME280;5279;42.048;24.638;2023-03-01T04:27:05;98085.41;;;7.41;100.00
10464;BME280;5279;42.048;24.638;2023-03-01T04:29:32;98077.38;;;7.43;100.00
10464;BME280;5279;42.048;24.638;2023-03-01T04:31:59;98088.78;;;7.43;100.00
10464;BME280;5279;42.048;24.638;2023-03-01T04:34:26;98093.09;;;7.44;100.00
10464;BME280;5279;42.048;24.638;2023-03-01T04:36:53;98087.81;;;7.44;100.00
10464;BME280;5279;42.048;24.638;2023-03-01T04:39:19;98079.91;;;7.44;100.00
10464;BME280;5279;42.048;24.638;2023-03-01T04:41:47;98084.22;;;7.45;100.00
10464;BME280;5279;42.048;24.638;2023-03-01T04:44:16;98081.81;;;7.42;100.00
10464;BME280;5279;42.048;24.638;2023-03-01T04:46:44;98089.94;;;7.39;100.00
10464;BME280;5279;42.048;24.638;2023-03-01T04:49:11;98092.56;;;7.39;100.00
10464;BME280;5279;42.048;24.638;2023-03-01T04:51:38;98087.81;;;7.21;100.00
10464;BME280;5279;42.048;24.638;2023-03-01T04:54:05;98083.84;;;7.15;100.00
10464;BME280;5279;42.048;24.638;2023-03-01T04:56:34;98082.03;;;7.15;100.00
10464;BME280;5279;42.048;24.638;2023-03-01T04:59:02;98080.25;;;7.16;100.00
10464;BME280;5279;42.048;24.638;2023-03-01T05:01:32;98072.06;;;7.08;100.00
10464;BME280;5279;42.048;24.638;2023-03-01T05:04:01;98081.94;;;7.17;100.00
10464;BME280;5279;42.048;24.638;2023-03-01T05:06:31;98078.72;;;7.25;100.00
10464;BME280;5279;42.048;24.638;2023-03-01T05:08:58;98076.91;;;7.14;100.00
10464;BME280;5279;42.048;24.638;2023-03-01T05:11:25;98077.72;;;7.14;100.00
10464;BME280;5279;42.048;24.638;2023-03-01T05:13:53;98080.97;;;7.18;100.00
10464;BME280;5279;42.048;24.638;2023-03-01T05:16:20;98083.72;;;7.17;100.00
10464;BME280;5279;42.048;24.638;2023-03-01T05:18:49;98077.13;;;7.11;100.00
10464;BME280;5279;42.048;24.638;2023-03-01T05:21:17;98081.94;;;7.17;100.00
10464;BME280;5279;42.048;24.638;2023-03-01T05:23:45;98093.47;;;7.27;100.00
10464;BME280;5279;42.048;24.638;2023-03-01T05:26:12;98079.81;;;7.22;100.00
10464;BME280;5279;42.048;24.638;2023-03-01T05:28:39;98083.69;;;7.29;100.00
10464;BME280;5279;42.048;24.638;2023-03-01T05:31:06;98091.81;;;7.26;100.00
10464;BME280;5279;42.048;24.638;2023-03-01T05:33:35;98082.72;;;7.30;100.00
10464;BME280;5279;42.048;24.638;2023-03-01T05:36:04;98089.91;;;7.28;100.00
10464;BME280;5279;42.048;24.638;2023-03-01T05:38:32;98091.69;;;7.28;100.00
10464;BME280;5279;42.048;24.638;2023-03-01T05:40:59;98086.31;;;7.29;100.00
10464;BME280;5279;42.048;24.638;2023-03-01T05:44:00;98090.22;;;7.24;100.00
10464;BME280;5279;42.048;24.638;2023-03-01T05:46:30;98096.56;;;7.21;100.00
10464;BME280;5279;42.048;24.638;2023-03-01T05:48:56;98099.19;;;7.21;100.00
10464;BME280;5279;42.048;24.638;2023-03-01T05:51:25;98102.81;;;7.20;100.00
10464;BME280;5279;42.048;24.638;2023-03-01T05:53:51;98106.03;;;7.24;100.00
10464;BME280;5279;42.048;24.638;2023-03-01T05:56:18;98111.94;;;7.27;100.00
10464;BME280;5279;42.048;24.638;2023-03-01T05:58:48;98099.72;;;7.26;100.00
10464;BME280;5279;42.048;24.638;2023-03-01T06:01:14;98105.09;;;7.25;100.00
10464;BME280;5279;42.048;24.638;2023-03-01T06:03:42;98113.22;;;7.22;100.00
10464;BME280;5279;42.048;24.638;2023-03-01T06:06:10;98104.78;;;7.29;100.00
10464;BME280;5279;42.048;24.638;2023-03-01T06:08:38;98112.09;;;7.37;100.00
10464;BME280;5279;42.048;24.638;2023-03-01T06:11:05;98108.63;;;7.36;100.00
10464;BME280;5279;42.048;24.638;2023-03-01T06:13:32;98109.72;;;7.45;100.00
10464;BME280;5279;42.048;24.638;2023-03-01T06:15:59;98117.78;;;7.43;100.00
10464;BME280;5279;42.048;24.638;2023-03-01T06:18:26;98116.59;;;7.47;100.00
10464;BME280;5279;42.048;24.638;2023-03-01T06:20:53;98113.03;;;7.36;100.00
10464;BME280;5279;42.048;24.638;2023-03-01T06:23:20;98116.81;;;7.44;100.00
10464;BME280;5279;42.048;24.638;2023-03-01T06:25:48;98122.91;;;7.45;100.00
10464;BME280;5279;42.048;24.638;2023-03-01T06:28:15;98125.22;;;7.49;100.00
10464;BME280;5279;42.048;24.638;2023-03-01T06:30:42;98121.44;;;7.53;100.00
10464;BME280;5279;42.048;24.638;2023-03-01T06:33:09;98112.31;;;7.57;100.00
10464;BME280;5279;42.048;24.638;2023-03-01T06:35:36;98116.41;;;7.61;100.00
10464;BME280;5279;42.048;24.638;2023-03-01T06:38:04;98116.28;;;7.63;100.00
10464;BME280;5279;42.048;24.638;2023-03-01T06:40:31;98126.25;;;7.59;100.00
10464;BME280;5279;42.048;24.638;2023-03-01T06:43:02;98127.63;;;7.52;100.00
10464;BME280;5279;42.048;24.638;2023-03-01T06:45:28;98126.25;;;7.59;100.00
10464;BME280;5279;42.048;24.638;2023-03-01T06:48:02;98130.09;;;7.66;100.00
10464;BME280;5279;42.048;24.638;2023-03-01T06:50:30;98120.28;;;7.68;100.00
10464;BME280;5279;42.048;24.638;2023-03-01T06:52:57;98121.94;;;7.69;100.00
10464;BME280;5279;42.048;24.638;2023-03-01T06:55:24;98127.69;;;7.63;100.00
10464;BME280;5279;42.048;24.638;2023-03-01T06:57:54;98126.03;;;7.62;100.00
10464;BME280;5279;42.048;24.638;2023-03-01T07:00:44;98131.66;;;7.69;100.00
10464;BME280;5279;42.048;24.638;2023-03-01T07:03:10;98132.28;;;7.72;100.00
10464;BME280;5279;42.048;24.638;2023-03-01T07:05:37;98125.09;;;7.75;100.00
10464;BME280;5279;42.048;24.638;2023-03-01T07:08:04;98127.22;;;7.69;100.00
10464;BME280;5279;42.048;24.638;2023-03-01T07:10:31;98132.97;;;7.63;100.00
10464;BME280;5279;42.048;24.638;2023-03-01T07:13:13;98135.66;;;7.75;100.00
10464;BME280;5279;42.048;24.638;2023-03-01T07:15:40;98136.88;;;7.82;100.00
10464;BME280;5279;42.048;24.638;2023-03-01T07:18:09;98129.69;;;7.84;100.00
10464;BME280;5279;42.048;24.638;2023-03-01T07:20:36;98121.78;;;7.84;100.00
10464;BME280;5279;42.048;24.638;2023-03-01T07:23:03;98125.97;;;7.86;100.00
10464;BME280;5279;42.048;24.638;2023-03-01T07:25:32;98125.63;;;7.91;100.00
10464;BME280;5279;42.048;24.638;2023-03-01T07:27:59;98121.81;;;7.95;100.00
10464;BME280;5279;42.048;24.638;2023-03-01T07:30:26;98119.06;;;7.96;100.00
10464;BME280;5279;42.048;24.638;2023-03-01T07:32:54;98130.22;;;8.00;100.00
10464;BME280;5279;42.048;24.638;2023-03-01T07:35:26;98120.84;;;7.96;100.00
10464;BME280;5279;42.048;24.638;2023-03-01T07:37:53;98127.09;;;7.95;100.00
10464;BME280;5279;42.048;24.638;2023-03-01T07:40:20;98121.56;;;7.87;100.00
10464;BME280;5279;42.048;24.638;2023-03-01T07:42:47;98120.97;;;7.94;100.00
10464;BME280;5279;42.048;24.638;2023-03-01T07:45:14;98118.09;;;7.97;100.00
10464;BME280;5279;42.048;24.638;2023-03-01T07:47:41;98125.69;;;8.02;100.00
10464;BME280;5279;42.048;24.638;2023-03-01T07:50:09;98122.91;;;8.03;100.00
10464;BME280;5279;42.048;24.638;2023-03-01T07:52:38;98120.78;;;8.08;100.00
10464;BME280;5279;42.048;24.638;2023-03-01T07:55:05;98116.69;;;8.04;100.00
10464;BME280;5279;42.048;24.638;2023-03-01T07:57:32;98115.38;;;8.10;100.00
10464;BME280;5279;42.048;24.638;2023-03-01T07:59:59;98120.91;;;8.18;100.00
10464;BME280;5279;42.048;24.638;2023-03-01T08:02:26;98114.31;;;8.23;100.00
10464;BME280;5279;42.048;24.638;2023-03-01T08:04:53;98106.28;;;8.14;100.00
10464;BME280;5279;42.048;24.638;2023-03-01T08:07:20;98103.13;;;8.09;100.00
10464;BME280;5279;42.048;24.638;2023-03-01T08:09:48;98105.56;;;8.23;100.00
10464;BME280;5279;42.048;24.638;2023-03-01T08:12:15;98112.75;;;8.21;100.00
10464;BME280;5279;42.048;24.638;2023-03-01T08:14:45;98117.31;;;8.19;100.00
10464;BME280;5279;42.048;24.638;2023-03-01T08:17:13;98119.00;;;8.20;100.00
10464;BME280;5279;42.048;24.638;2023-03-01T08:19:40;98118.44;;;8.28;100.00
10464;BME280;5279;42.048;24.638;2023-03-01T08:22:07;98107.22;;;8.24;100.00
10464;BME280;5279;42.048;24.638;2023-03-01T08:24:34;98095.25;;;8.20;100.00
10464;BME280;5279;42.048;24.638;2023-03-01T08:27:02;98108.91;;;8.25;100.00
10464;BME280;5279;42.048;24.638;2023-03-01T08:29:30;98112.28;;;8.27;100.00
10464;BME280;5279;42.048;24.638;2023-03-01T08:31:57;98107.00;;;8.27;100.00
10464;BME280;5279;42.048;24.638;2023-03-01T08:34:24;98110.84;;;8.23;100.00
10464;BME280;5279;42.048;24.638;2023-03-01T08:36:51;98108.06;;;8.24;100.00
10464;BME280;5279;42.048;24.638;2023-03-01T08:39:19;98108.53;;;8.18;100.00
10464;BME280;5279;42.048;24.638;2023-03-01T08:41:47;98110.63;;;7.91;100.00
10464;BME280;5279;42.048;24.638;2023-03-01T08:44:16;98124.22;;;8.09;100.00
10464;BME280;5279;42.048;24.638;2023-03-01T08:46:43;98101.69;;;8.16;100.00
10464;BME280;5279;42.048;24.638;2023-03-01T08:49:12;98109.88;;;8.24;100.00
10464;BME280;5279;42.048;24.638;2023-03-01T08:51:39;98103.34;;;8.30;100.00
10464;BME280;5279;42.048;24.638;2023-03-01T08:54:07;98108.84;;;8.38;100.00
10464;BME280;5279;42.048;24.638;2023-03-01T08:56:36;98107.75;;;8.40;100.00
10464;BME280;5279;42.048;24.638;2023-03-01T08:59:03;98100.09;;;8.37;100.00
10464;BME280;5279;42.048;24.638;2023-03-01T09:01:32;98107.53;;;8.43;100.00
10464;BME280;5279;42.048;24.638;2023-03-01T09:03:59;98110.88;;;8.45;100.00
10464;BME280;5279;42.048;24.638;2023-03-01T09:06:26;98116.28;;;8.55;100.00
10464;BME280;5279;42.048;24.638;2023-03-01T09:08:53;98120.00;;;8.63;100.00
10464;BME280;5279;42.048;24.638;2023-03-01T09:11:21;98109.09;;;8.68;100.00
10464;BME280;5279;42.048;24.638;2023-03-01T09:13:49;98121.56;;;8.55;100.00
10464;BME280;5279;42.048;24.638;2023-03-01T09:16:17;98117.75;;;8.59;100.00
10464;BME280;5279;42.048;24.638;2023-03-01T09:18:49;98117.13;;;8.55;100.00
10464;BME280;5279;42.048;24.638;2023-03-01T09:21:17;98127.22;;;8.61;100.00
10464;BME280;5279;42.048;24.638;2023-03-01T09:23:47;98118.09;;;8.54;100.00
10464;BME280;5279;42.048;24.638;2023-03-01T09:26:16;98110.16;;;8.54;100.00
10464;BME280;5279;42.048;24.638;2023-03-01T09:28:45;98110.41;;;8.51;100.00
10464;BME280;5279;42.048;24.638;2023-03-01T09:31:12;98113.66;;;8.55;100.00
10464;BME280;5279;42.048;24.638;2023-03-01T09:33:40;98114.25;;;8.58;100.00
10464;BME280;5279;42.048;24.638;2023-03-01T09:36:12;98118.47;;;8.61;100.00
10464;BME280;5279;42.048;24.638;2023-03-01T09:38:39;98105.25;;;8.61;100.00
10464;BME280;5279;42.048;24.638;2023-03-01T09:41:10;98111.63;;;8.58;100.00
10464;BME280;5279;42.048;24.638;2023-03-01T09:43:42;98115.94;;;8.59;100.00
10464;BME280;5279;42.048;24.638;2023-03-01T09:46:13;98103.94;;;8.66;100.00
10464;BME280;5279;42.048;24.638;2023-03-01T09:48:44;98093.72;;;8.62;100.00
10464;BME280;5279;42.048;24.638;2023-03-01T09:51:17;98098.63;;;8.66;100.00
10464;BME280;5279;42.048;24.638;2023-03-01T09:53:45;98101.28;;;8.66;100.00
10464;BME280;5279;42.048;24.638;2023-03-01T09:56:17;98097.34;;;8.72;100.00
10464;BME280;5279;42.048;24.638;2023-03-01T09:58:51;98096.84;;;8.67;100.00
10464;BME280;5279;42.048;24.638;2023-03-01T10:01:32;98092.38;;;8.78;100.00
10464;BME280;5279;42.048;24.638;2023-03-01T10:04:12;98087.34;;;8.75;100.00
10464;BME280;5279;42.048;24.638;2023-03-01T10:06:49;98095.03;;;8.67;100.00
10464;BME280;5279;42.048;24.638;2023-03-01T10:09:19;98085.09;;;8.71;100.00
10464;BME280;5279;42.048;24.638;2023-03-01T10:11:51;98084.69;;;8.75;100.00
10464;BME280;5279;42.048;24.638;2023-03-01T10:14:28;98089.28;;;8.73;100.00
10464;BME280;5279;42.048;24.638;2023-03-01T10:16:59;98081.84;;;8.67;100.00
10464;BME280;5279;42.048;24.638;2023-03-01T10:19:30;98087.13;;;8.56;100.00
10464;BME280;5279;42.048;24.638;2023-03-01T10:22:04;98081.38;;;8.62;100.00
10464;BME280;5279;42.048;24.638;2023-03-01T10:24:35;98075.25;;;8.62;100.00
10464;BME280;5279;42.048;24.638;2023-03-01T10:27:07;98078.00;;;8.60;100.00
10464;BME280;5279;42.048;24.638;2023-03-01T10:29:41;98083.63;;;8.67;100.00
10464;BME280;5279;42.048;24.638;2023-03-01T10:32:10;98070.06;;;8.60;100.00
10464;BME280;5279;42.048;24.638;2023-03-01T10:34:37;98078.72;;;8.62;100.00
10464;BME280;5279;42.048;24.638;2023-03-01T10:37:11;98075.47;;;8.59;100.00
10464;BME280;5279;42.048;24.638;2023-03-01T10:39:55;98077.28;;;8.58;100.00
10464;BME280;5279;42.048;24.638;2023-03-01T10:42:26;98072.72;;;8.60;100.00
10464;BME280;5279;42.048;24.638;2023-03-01T10:44:53;98072.47;;;8.63;100.00
10464;BME280;5279;42.048;24.638;2023-03-01T10:47:25;98076.31;;;8.70;100.00
10464;BME280;5279;42.048;24.638;2023-03-01T10:49:57;98072.97;;;8.68;100.00
10464;BME280;5279;42.048;24.638;2023-03-01T10:52:32;98068.16;;;8.73;100.00
10464;BME280;5279;42.048;24.638;2023-03-01T10:55:02;98063.47;;;8.77;100.00
10464;BME280;5279;42.048;24.638;2023-03-01T10:57:35;98062.16;;;8.71;100.00
10464;BME280;5279;42.048;24.638;2023-03-01T11:00:26;98060.69;;;8.78;100.00
10464;BME280;5279;42.048;24.638;2023-03-01T11:03:10;98049.63;;;8.85;100.00
10464;BME280;5279;42.048;24.638;2023-03-01T11:05:51;98054.34;;;8.81;100.00
10464;BME280;5279;42.048;24.638;2023-03-01T11:08:35;98036.41;;;8.85;100.00
10464;BME280;5279;42.048;24.638;2023-03-01T11:11:14;98039.31;;;8.82;100.00
10464;BME280;5279;42.048;24.638;2023-03-01T11:13:52;98028.47;;;8.85;100.00
10464;BME280;5279;42.048;24.638;2023-03-01T11:16:25;98032.09;;;8.84;100.00
10464;BME280;5279;42.048;24.638;2023-03-01T11:19:16;98031.13;;;8.85;100.00
10464;BME280;5279;42.048;24.638;2023-03-01T11:21:50;98023.69;;;8.90;100.00
10464;BME280;5279;42.048;24.638;2023-03-01T11:24:29;98020.28;;;8.99;100.00
10464;BME280;5279;42.048;24.638;2023-03-01T11:27:00;98026.53;;;9.09;100.00
10464;BME280;5279;42.048;24.638;2023-03-01T11:29:33;98011.81;;;9.16;100.00
10464;BME280;5279;42.048;24.638;2023-03-01T11:32:06;98016.59;;;9.22;100.00
10464;BME280;5279;42.048;24.638;2023-03-01T11:34:44;98001.09;;;9.28;100.00
10464;BME280;5279;42.048;24.638;2023-03-01T11:37:21;98003.34;;;9.33;100.00
10464;BME280;5279;42.048;24.638;2023-03-01T11:39:57;97995.88;;;9.38;100.00
10464;BME280;5279;42.048;24.638;2023-03-01T11:42:30;97999.44;;;9.48;100.00
10464;BME280;5279;42.048;24.638;2023-03-01T11:45:08;97991.25;;;9.51;100.00
10464;BME280;5279;42.048;24.638;2023-03-01T11:47:53;97993.69;;;9.43;100.00
10464;BME280;5279;42.048;24.638;2023-03-01T11:50:28;97989.91;;;9.25;100.00
10464;BME280;5279;42.048;24.638;2023-03-01T11:56:12;97991.75;;;9.45;100.00
10464;BME280;5279;42.048;24.638;2023-03-01T12:02:00;97986.06;;;9.29;100.00
10464;BME280;5279;42.048;24.638;2023-03-01T12:07:55;97982.97;;;9.24;100.00
10464;BME280;5279;42.048;24.638;2023-03-01T12:10:28;97991.78;;;9.34;100.00
10464;BME280;5279;42.048;24.638;2023-03-01T12:13:16;97988.38;;;9.43;100.00
10464;BME280;5279;42.048;24.638;2023-03-01T12:15:54;97970.84;;;9.42;100.00
10464;BME280;5279;42.048;24.638;2023-03-01T12:18:46;97985.03;;;9.41;100.00
10464;BME280;5279;42.048;24.638;2023-03-01T12:21:27;97971.63;;;9.33;100.00
10464;BME280;5279;42.048;24.638;2023-03-01T12:24:24;97966.63;;;9.40;100.00
10464;BME280;5279;42.048;24.638;2023-03-01T12:27:02;97963.44;;;9.36;100.00
10464;BME280;5279;42.048;24.638;2023-03-01T12:29:37;97973.19;;;9.24;100.00
10464;BME280;5279;42.048;24.638;2023-03-01T12:32:22;97962.84;;;9.12;100.00
10464;BME280;5279;42.048;24.638;2023-03-01T12:35:05;97961.84;;;9.13;100.00
10464;BME280;5279;42.048;24.638;2023-03-01T12:37:51;97959.19;;;9.13;100.00
10464;BME280;5279;42.048;24.638;2023-03-01T12:40:46;97956.31;;;9.16;100.00
10464;BME280;5279;42.048;24.638;2023-03-01T12:43:26;97958.94;;;9.16;100.00
10464;BME280;5279;42.048;24.638;2023-03-01T12:46:07;97948.59;;;9.24;100.00
10464;BME280;5279;42.048;24.638;2023-03-01T12:48:43;97957.47;;;9.23;100.00
10464;BME280;5279;42.048;24.638;2023-03-01T12:51:15;97950.97;;;9.27;100.00
10464;BME280;5279;42.048;24.638;2023-03-01T12:53:47;97946.06;;;9.22;100.00
10464;BME280;5279;42.048;24.638;2023-03-01T12:56:17;97946.66;;;9.26;100.00
10464;BME280;5279;42.048;24.638;2023-03-01T12:58:53;97953.94;;;9.33;100.00
10464;BME280;5279;42.048;24.638;2023-03-01T13:01:35;97954.06;;;9.32;100.00
10464;BME280;5279;42.048;24.638;2023-03-01T13:04:18;97955.69;;;9.23;100.00
10464;BME280;5279;42.048;24.638;2023-03-01T13:06:57;97957.03;;;9.18;100.00
10464;BME280;5279;42.048;24.638;2023-03-01T13:09:35;97948.19;;;9.28;100.00
10464;BME280;5279;42.048;24.638;2023-03-01T13:12:04;97952.38;;;9.10;100.00
10464;BME280;5279;42.048;24.638;2023-03-01T13:14:53;97953.41;;;9.19;100.00
10464;BME280;5279;42.048;24.638;2023-03-01T13:17:32;97952.91;;;9.25;100.00
10464;BME280;5279;42.048;24.638;2023-03-01T13:19:59;97939.22;;;9.20;100.00
10464;BME280;5279;42.048;24.638;2023-03-01T13:22:29;97948.78;;;9.32;100.00
10464;BME280;5279;42.048;24.638;2023-03-01T13:25:18;97958.44;;;9.22;100.00
10464;BME280;5279;42.048;24.638;2023-03-01T13:27:46;97954.00;;;9.22;100.00